sensor_id;sensor_type;location;lat;lon;timestamp;pressure;altitude;pressure_sealevel;temperature;humidity
11345;BME280;5727;42.600;23.028;2023-03-26T00:01:47;93209.72;;;10.57;100.00
11345;BME280;5727;42.600;23.028;2023-03-26T00:04:14;93205.50;;;10.68;100.00
11345;BME280;5727;42.600;23.028;2023-03-26T00:06:44;93218.09;;;10.78;100.00
11345;BME280;5727;42.600;23.028;2023-03-26T00:09:14;93210.09;;;10.87;100.00
11345;BME280;5727;42.600;23.028;2023-03-26T00:11:41;93209.59;;;10.81;100.00
11345;BME280;5727;42.600;23.028;2023-03-26T00:14:09;93196.78;;;10.95;100.00
11345;BME280;5727;42.600;23.028;2023-03-26T00:16:39;93190.88;;;10.98;100.00
11345;BME280;5727;42.600;23.028;2023-03-26T00:19:07;93191.88;;;11.10;100.00
11345;BME280;5727;42.600;23.028;2023-03-26T00:21:34;93188.25;;;11.14;100.00
11345;BME280;5727;42.600;23.028;2023-03-26T00:24:04;93180.38;;;11.14;100.00
11345;BME280;5727;42.600;23.028;2023-03-26T00:26:31;93179.34;;;11.19;100.00
11345;BME280;5727;42.600;23.028;2023-03-26T00:28:58;93182.31;;;11.17;100.00
11345;BME280;5727;42.600;23.028;2023-03-26T00:31:27;93180.13;;;11.19;100.00
11345;BME280;5727;42.600;23.028;2023-03-26T00:33:56;93187.63;;;11.21;100.00
11345;BME280;5727;42.600;23.028;2023-03-26T00:36:23;93174.88;;;11.19;100.00
11345;BME280;5727;42.600;23.028;2023-03-26T00:38:51;93174.44;;;11.17;100.00
11345;BME280;5727;42.600;23.028;2023-03-26T00:41:21;93180.28;;;11.11;100.00
11345;BME280;5727;42.600;23.028;2023-03-26T00:43:57;93181.81;;;11.12;100.00
11345;BME280;5727;42.600;23.028;2023-03-26T00:46:26;93178.34;;;11.07;100.00
11345;BME280;5727;42.600;23.028;2023-03-26T00:48:53;93181.25;;;11.02;100.00
11345;BME280;5727;42.600;23.028;2023-03-26T00:51:24;93173.72;;;10.85;100.00
11345;BME280;5727;42.600;23.028;2023-03-26T00:53:51;93170.00;;;10.86;100.00
11345;BME280;5727;42.600;23.028;2023-03-26T00:56:18;93172.56;;;10.83;100.00
11345;BME280;5727;42.600;23.028;2023-03-26T00:58:45;93172.56;;;10.83;100.00
11345;BME280;5727;42.600;23.028;2023-03-26T01:01:17;93169.25;;;10.86;100.00
11345;BME280;5727;42.600;23.028;2023-03-26T01:03:45;93169.59;;;10.84;100.00
11345;BME280;5727;42.600;23.028;2023-03-26T01:06:13;93163.66;;;10.87;100.00
11345;BME280;5727;42.600;23.028;2023-03-26T01:08:47;93153.88;;;10.84;100.00
11345;BME280;5727;42.600;23.028;2023-03-26T01:11:16;93162.00;;;10.79;100.00
11345;BME280;5727;42.600;23.028;2023-03-26T01:13:48;93160.38;;;10.59;100.00
11345;BME280;5727;42.600;23.028;2023-03-26T01:16:20;93166.72;;;10.58;100.00
11345;BME280;5727;42.600;23.028;2023-03-26T01:18:48;93163.16;;;10.66;100.00
11345;BME280;5727;42.600;23.028;2023-03-26T01:21:19;93175.25;;;10.55;100.00
11345;BME280;5727;42.600;23.028;2023-03-26T01:23:59;93166.38;;;10.44;100.00
11345;BME280;5727;42.600;23.028;2023-03-26T01:26:47;93178.56;;;10.52;100.00
11345;BME280;5727;42.600;23.028;2023-03-26T01:29:21;93184.28;;;10.58;100.00
11345;BME280;5727;42.600;23.028;2023-03-26T01:31:59;93185.50;;;10.60;100.00
11345;BME280;5727;42.600;23.028;2023-03-26T01:34:37;93181.75;;;10.61;100.00
11345;BME280;5727;42.600;23.028;2023-03-26T01:37:13;93185.28;;;10.53;100.00
11345;BME280;5727;42.600;23.028;2023-03-26T01:39:48;93193.41;;;10.48;100.00
11345;BME280;5727;42.600;23.028;2023-03-26T01:42:21;93187.56;;;10.55;100.00
11345;BME280;5727;42.600;23.028;2023-03-26T01:44:54;93195.13;;;10.56;100.00
11345;BME280;5727;42.600;23.028;2023-03-26T01:47:24;93191.31;;;10.54;100.00
11345;BME280;5727;42.600;23.028;2023-03-26T01:49:51;93190.88;;;10.52;100.00
11345;BME280;5727;42.600;23.028;2023-03-26T01:52:21;93193.56;;;10.55;100.00
11345;BME280;5727;42.600;23.028;2023-03-26T01:54:52;93189.88;;;10.56;100.00
11345;BME280;5727;42.600;23.028;2023-03-26T01:57:26;93189.44;;;10.54;100.00
11345;BME280;5727;42.600;23.028;2023-03-26T02:00:08;93185.28;;;10.53;100.00
11345;BME280;5727;42.600;23.028;2023-03-26T02:02:42;93182.59;;;10.50;100.00
11345;BME280;5727;42.600;23.028;2023-03-26T02:05:14;93176.28;;;10.51;100.00
11345;BME280;5727;42.600;23.028;2023-03-26T02:07:47;93185.56;;;10.48;100.00
11345;BME280;5727;42.600;23.028;2023-03-26T02:10:23;93183.75;;;10.37;100.00
11345;BME280;5727;42.600;23.028;2023-03-26T02:12:51;93187.31;;;10.44;100.00
11345;BME280;5727;42.600;23.028;2023-03-26T02:15:19;93180.38;;;10.36;100.00
11345;BME280;5727;42.600;23.028;2023-03-26T02:17:45;93185.53;;;10.33;100.00
11345;BME280;5727;42.600;23.028;2023-03-26T02:20:14;93192.03;;;10.23;100.00
11345;BME280;5727;42.600;23.028;2023-03-26T02:22:43;93197.69;;;10.25;100.00
11345;BME280;5727;42.600;23.028;2023-03-26T02:25:13;93206.09;;;10.19;100.00
11345;BME280;5727;42.600;23.028;2023-03-26T02:27:41;93207.56;;;10.16;100.00
11345;BME280;5727;42.600;23.028;2023-03-26T02:30:13;93216.50;;;10.03;100.00
11345;BME280;5727;42.600;23.028;2023-03-26T02:32:41;93215.22;;;9.97;100.00
11345;BME280;5727;42.600;23.028;2023-03-26T02:35:09;93226.63;;;9.77;100.00
11345;BME280;5727;42.600;23.028;2023-03-26T02:37:37;93222.06;;;9.62;100.00
11345;BME280;5727;42.600;23.028;2023-03-26T02:40:05;93226.25;;;9.39;100.00
11345;BME280;5727;42.600;23.028;2023-03-26T02:42:35;93230.72;;;9.38;100.00
11345;BME280;5727;42.600;23.028;2023-03-26T02:45:05;93233.66;;;9.37;100.00
11345;BME280;5727;42.600;23.028;2023-03-26T02:47:32;93234.53;;;9.41;100.00
11345;BME280;5727;42.600;23.028;2023-03-26T02:49:59;93244.41;;;9.47;100.00
11345;BME280;5727;42.600;23.028;2023-03-26T02:52:28;93246.94;;;9.56;100.00
11345;BME280;5727;42.600;23.028;2023-03-26T02:54:56;93241.81;;;9.59;100.00
11345;BME280;5727;42.600;23.028;2023-03-26T02:57:23;93255.63;;;9.72;100.00
11345;BME280;5727;42.600;23.028;2023-03-26T02:59:50;93256.81;;;9.74;100.00
11345;BME280;5727;42.600;23.028;2023-03-26T03:02:18;93265.41;;;9.75;100.00
11345;BME280;5727;42.600;23.028;2023-03-26T03:04:48;93254.16;;;9.86;100.00
11345;BME280;5727;42.600;23.028;2023-03-26T03:07:15;93257.13;;;9.85;100.00
11345;BME280;5727;42.600;23.028;2023-03-26T03:09:42;93260.25;;;9.90;100.00
11345;BME280;5727;42.600;23.028;2023-03-26T03:12:09;93270.97;;;9.85;100.00
11345;BME280;5727;42.600;23.028;2023-03-26T03:14:36;93272.72;;;9.81;100.00
11345;BME280;5727;42.600;23.028;2023-03-26T03:17:03;93269.97;;;9.78;100.00
11345;BME280;5727;42.600;23.028;2023-03-26T03:19:31;93273.16;;;9.83;100.00
11345;BME280;5727;42.600;23.028;2023-03-26T03:21:57;93281.63;;;9.92;100.00
11345;BME280;5727;42.600;23.028;2023-03-26T03:24:24;93280.44;;;9.90;100.00
11345;BME280;5727;42.600;23.028;2023-03-26T03:26:51;93278.34;;;9.95;100.00
11345;BME280;5727;42.600;23.028;2023-03-26T03:29:20;93271.34;;;9.99;100.00
11345;BME280;5727;42.600;23.028;2023-03-26T03:31:48;93269.25;;;10.05;100.00
11345;BME280;5727;42.600;23.028;2023-03-26T03:34:14;93269.06;;;9.98;100.00
11345;BME280;5727;42.600;23.028;2023-03-26T03:36:42;93275.25;;;10.05;100.00
11345;BME280;5727;42.600;23.028;2023-03-26T03:39:13;93265.00;;;10.12;100.00
11345;BME280;5727;42.600;23.028;2023-03-26T03:41:39;93266.09;;;10.24;100.00
11345;BME280;5727;42.600;23.028;2023-03-26T03:44:06;93261.59;;;10.24;100.00
11345;BME280;5727;42.600;23.028;2023-03-26T03:46:33;93261.81;;;10.31;100.00
11345;BME280;5727;42.600;23.028;2023-03-26T03:49:00;93267.47;;;10.33;100.00
11345;BME280;5727;42.600;23.028;2023-03-26T03:51:27;93258.06;;;10.32;100.00
11345;BME280;5727;42.600;23.028;2023-03-26T03:53:55;93271.94;;;10.33;100.00
11345;BME280;5727;42.600;23.028;2023-03-26T03:56:21;93254.25;;;10.02;100.00
11345;BME280;5727;42.600;23.028;2023-03-26T03:58:50;93258.19;;;9.84;100.00
11345;BME280;5727;42.600;23.028;2023-03-26T04:01:17;93256.28;;;9.69;100.00
11345;BME280;5727;42.600;23.028;2023-03-26T04:03:47;93260.31;;;9.66;100.00
11345;BME280;5727;42.600;23.028;2023-03-26T04:06:14;93266.09;;;9.48;100.00
11345;BME280;5727;42.600;23.028;2023-03-26T04:08:43;93270.25;;;9.37;100.00
11345;BME280;5727;42.600;23.028;2023-03-26T04:11:12;93279.19;;;9.36;100.00
11345;BME280;5727;42.600;23.028;2023-03-26T04:13:38;93276.47;;;9.20;100.00
11345;BME280;5727;42.600;23.028;2023-03-26T04:16:05;93278.75;;;9.21;100.00
11345;BME280;5727;42.600;23.028;2023-03-26T04:18:32;93287.03;;;9.23;100.00
11345;BME280;5727;42.600;23.028;2023-03-26T04:21:01;93291.94;;;9.13;100.00
11345;BME280;5727;42.600;23.028;2023-03-26T04:23:28;93302.50;;;9.04;100.00
11345;BME280;5727;42.600;23.028;2023-03-26T04:25:55;93301.38;;;9.05;100.00
11345;BME280;5727;42.600;23.028;2023-03-26T04:28:27;93311.75;;;9.14;100.00
11345;BME280;5727;42.600;23.028;2023-03-26T04:30:56;93316.22;;;9.13;100.00
11345;BME280;5727;42.600;23.028;2023-03-26T04:33:26;93323.19;;;9.09;100.00
11345;BME280;5727;42.600;23.028;2023-03-26T04:35:53;93327.94;;;8.95;100.00
11345;BME280;5727;42.600;23.028;2023-03-26T04:38:21;93330.25;;;8.97;100.00
11345;BME280;5727;42.600;23.028;2023-03-26T04:40:48;93335.47;;;8.97;100.00
11345;BME280;5727;42.600;23.028;2023-03-26T04:43:15;93335.13;;;8.98;100.00
11345;BME280;5727;42.600;23.028;2023-03-26T04:45:44;93337.41;;;9.00;100.00
11345;BME280;5727;42.600;23.028;2023-03-26T04:48:12;93336.69;;;9.11;100.00
11345;BME280;5727;42.600;23.028;2023-03-26T04:50:40;93346.72;;;9.21;100.00
11345;BME280;5727;42.600;23.028;2023-03-26T04:53:08;93350.31;;;9.29;100.00
11345;BME280;5727;42.600;23.028;2023-03-26T04:55:40;93342.59;;;9.45;100.00
11345;BME280;5727;42.600;23.028;2023-03-26T04:58:09;93356.09;;;9.59;100.00
11345;BME280;5727;42.600;23.028;2023-03-26T05:00:39;93362.19;;;9.63;100.00
11345;BME280;5727;42.600;23.028;2023-03-26T05:03:10;93353.47;;;9.59;100.00
11345;BME280;5727;42.600;23.028;2023-03-26T05:05:37;93356.31;;;9.78;100.00
11345;BME280;5727;42.600;23.028;2023-03-26T05:08:04;93357.41;;;9.89;100.00
11345;BME280;5727;42.600;23.028;2023-03-26T05:10:31;93363.09;;;9.91;100.00
11345;BME280;5727;42.600;23.028;2023-03-26T05:12:58;93361.97;;;9.92;100.00
11345;BME280;5727;42.600;23.028;2023-03-26T05:15:25;93361.09;;;10.00;100.00
11345;BME280;5727;42.600;23.028;2023-03-26T05:17:51;93367.09;;;10.00;100.00
11345;BME280;5727;42.600;23.028;2023-03-26T05:20:22;93363.25;;;10.22;100.00
11345;BME280;5727;42.600;23.028;2023-03-26T05:22:51;93364.09;;;10.38;100.00
11345;BME280;5727;42.600;23.028;2023-03-26T05:25:18;93365.25;;;10.53;100.00
11345;BME280;5727;42.600;23.028;2023-03-26T05:27:45;93379.59;;;10.71;100.00
11345;BME280;5727;42.600;23.028;2023-03-26T05:30:14;93378.53;;;10.72;100.00
11345;BME280;5727;42.600;23.028;2023-03-26T05:32:41;93381.13;;;10.72;100.00
11345;BME280;5727;42.600;23.028;2023-03-26T05:35:08;93376.44;;;10.77;100.00
11345;BME280;5727;42.600;23.028;2023-03-26T05:37:37;93376.19;;;10.82;100.00
11345;BME280;5727;42.600;23.028;2023-03-26T05:40:05;93380.97;;;10.80;100.00
11345;BME280;5727;42.600;23.028;2023-03-26T05:42:36;93382.28;;;10.86;100.00
11345;BME280;5727;42.600;23.028;2023-03-26T05:45:04;93386.09;;;10.89;100.00
11345;BME280;5727;42.600;23.028;2023-03-26T05:47:31;93383.31;;;10.97;100.00
11345;BME280;5727;42.600;23.028;2023-03-26T05:49:58;93381.84;;;10.84;100.00
11345;BME280;5727;42.600;23.028;2023-03-26T05:52:25;93384.25;;;10.50;100.00
11345;BME280;5727;42.600;23.028;2023-03-26T05:54:53;93380.59;;;10.66;100.00
11345;BME280;5727;42.600;23.028;2023-03-26T05:57:19;93380.66;;;10.54;100.00
11345;BME280;5727;42.600;23.028;2023-03-26T05:59:48;93377.59;;;10.52;100.00
11345;BME280;5727;42.600;23.028;2023-03-26T06:02:15;93376.31;;;10.46;100.00
11345;BME280;5727;42.600;23.028;2023-03-26T06:04:42;93381.69;;;10.65;100.00
11345;BME280;5727;42.600;23.028;2023-03-26T06:07:10;93392.19;;;10.65;100.00
11345;BME280;5727;42.600;23.028;2023-03-26T06:09:37;93382.53;;;10.81;100.00
11345;BME280;5727;42.600;23.028;2023-03-26T06:12:06;93377.97;;;10.94;100.00
11345;BME280;5727;42.600;23.028;2023-03-26T06:14:34;93380.94;;;10.92;100.00
11345;BME280;5727;42.600;23.028;2023-03-26T06:17:01;93373.69;;;11.01;99.52
11345;BME280;5727;42.600;23.028;2023-03-26T06:19:27;93379.09;;;11.08;98.47
11345;BME280;5727;42.600;23.028;2023-03-26T06:21:54;93379.28;;;11.00;92.15
11345;BME280;5727;42.600;23.028;2023-03-26T06:24:21;93381.78;;;10.69;94.30
11345;BME280;5727;42.600;23.028;2023-03-26T06:26:47;93375.94;;;10.60;96.00
11345;BME280;5727;42.600;23.028;2023-03-26T06:29:16;93378.06;;;10.42;95.57
11345;BME280;5727;42.600;23.028;2023-03-26T06:31:42;93379.38;;;10.36;99.25
11345;BME280;5727;42.600;23.028;2023-03-26T06:34:09;93383.97;;;10.39;99.56
11345;BME280;5727;42.600;23.028;2023-03-26T06:36:36;93382.50;;;10.14;100.00
11345;BME280;5727;42.600;23.028;2023-03-26T06:39:03;93382.38;;;9.98;100.00
11345;BME280;5727;42.600;23.028;2023-03-26T06:41:31;93393.94;;;9.85;100.00
11345;BME280;5727;42.600;23.028;2023-03-26T06:43:58;93382.59;;;9.81;100.00
11345;BME280;5727;42.600;23.028;2023-03-26T06:46:26;93386.94;;;9.89;100.00
11345;BME280;5727;42.600;23.028;2023-03-26T06:48:53;93397.75;;;10.00;99.84
11345;BME280;5727;42.600;23.028;2023-03-26T06:51:20;93397.09;;;9.91;98.92
11345;BME280;5727;42.600;23.028;2023-03-26T06:53:47;93395.56;;;10.02;98.79
11345;BME280;5727;42.600;23.028;2023-03-26T06:56:13;93397.94;;;10.07;100.00
11345;BME280;5727;42.600;23.028;2023-03-26T06:58:40;93401.44;;;9.99;100.00
11345;BME280;5727;42.600;23.028;2023-03-26T07:01:07;93404.72;;;9.96;100.00
11345;BME280;5727;42.600;23.028;2023-03-26T07:03:35;93408.88;;;9.97;100.00
11345;BME280;5727;42.600;23.028;2023-03-26T07:06:02;93407.22;;;9.92;98.45
11345;BME280;5727;42.600;23.028;2023-03-26T07:08:29;93404.28;;;9.94;97.91
11345;BME280;5727;42.600;23.028;2023-03-26T07:10:56;93406.88;;;9.82;99.21
11345;BME280;5727;42.600;23.028;2023-03-26T07:13:23;93403.84;;;9.92;99.19
11345;BME280;5727;42.600;23.028;2023-03-26T07:15:49;93397.75;;;10.00;98.56
11345;BME280;5727;42.600;23.028;2023-03-26T07:18:16;93401.00;;;10.09;96.98
11345;BME280;5727;42.600;23.028;2023-03-26T07:20:45;93401.19;;;10.40;93.76
11345;BME280;5727;42.600;23.028;2023-03-26T07:23:12;93392.94;;;10.66;92.31
11345;BME280;5727;42.600;23.028;2023-03-26T07:25:40;93405.63;;;10.64;86.10
11345;BME280;5727;42.600;23.028;2023-03-26T07:28:12;93400.47;;;10.67;89.45
11345;BME280;5727;42.600;23.028;2023-03-26T07:30:52;93400.66;;;10.74;86.22
11345;BME280;5727;42.600;23.028;2023-03-26T07:33:26;93393.69;;;10.66;84.49
11345;BME280;5727;42.600;23.028;2023-03-26T07:36:02;93388.69;;;10.61;85.37
11345;BME280;5727;42.600;23.028;2023-03-26T07:38:45;93393.03;;;10.69;84.99
11345;BME280;5727;42.600;23.028;2023-03-26T07:41:16;93393.31;;;10.80;85.09
11345;BME280;5727;42.600;23.028;2023-03-26T07:43:58;93396.31;;;10.94;82.32
11345;BME280;5727;42.600;23.028;2023-03-26T07:46:29;93386.69;;;10.98;82.05
11345;BME280;5727;42.600;23.028;2023-03-26T07:48:58;93381.44;;;11.26;83.09
11345;BME280;5727;42.600;23.028;2023-03-26T07:51:28;93390.75;;;11.39;79.50
11345;BME280;5727;42.600;23.028;2023-03-26T07:53:55;93386.75;;;11.60;79.03
11345;BME280;5727;42.600;23.028;2023-03-26T07:56:27;93380.38;;;11.89;77.72
11345;BME280;5727;42.600;23.028;2023-03-26T08:01:51;93385.00;;;11.95;69.87
11345;BME280;5727;42.600;23.028;2023-03-26T08:07:13;93387.91;;;12.25;69.11
11345;BME280;5727;42.600;23.028;2023-03-26T08:09:58;93391.22;;;12.22;66.78
11345;BME280;5727;42.600;23.028;2023-03-26T08:12:36;93392.63;;;12.01;68.24
11345;BME280;5727;42.600;23.028;2023-03-26T08:15:11;93390.16;;;11.92;66.65
11345;BME280;5727;42.600;23.028;2023-03-26T08:17:43;93386.25;;;11.55;67.42
11345;BME280;5727;42.600;23.028;2023-03-26T08:20:20;93398.72;;;11.58;65.10
11345;BME280;5727;42.600;23.028;2023-03-26T08:22:54;93396.75;;;11.55;66.80
11345;BME280;5727;42.600;23.028;2023-03-26T08:25:26;93394.66;;;11.76;66.19
11345;BME280;5727;42.600;23.028;2023-03-26T08:28:02;93390.41;;;12.03;64.86
11345;BME280;5727;42.600;23.028;2023-03-26T08:30:30;93385.78;;;12.31;64.00
11345;BME280;5727;42.600;23.028;2023-03-26T08:32:59;93387.00;;;12.52;62.30
11345;BME280;5727;42.600;23.028;2023-03-26T08:35:29;93382.16;;;12.73;62.36
11345;BME280;5727;42.600;23.028;2023-03-26T08:37:58;93378.13;;;12.79;62.25
11345;BME280;5727;42.600;23.028;2023-03-26T08:40:42;93390.59;;;12.63;61.53
11345;BME280;5727;42.600;23.028;2023-03-26T08:43:34;93389.28;;;12.54;61.65
11345;BME280;5727;42.600;23.028;2023-03-26T08:46:26;93398.25;;;12.53;63.13
11345;BME280;5727;42.600;23.028;2023-03-26T08:49:16;93403.91;;;12.36;60.22
11345;BME280;5727;42.600;23.028;2023-03-26T08:52:19;93394.19;;;12.21;60.30
11345;BME280;5727;42.600;23.028;2023-03-26T08:55:07;93389.72;;;12.21;60.39
11345;BME280;5727;42.600;23.028;2023-03-26T08:58:16;93385.81;;;12.15;59.98
11345;BME280;5727;42.600;23.028;2023-03-26T09:04:02;93370.16;;;12.38;59.67
11345;BME280;5727;42.600;23.028;2023-03-26T09:06:55;93380.91;;;12.48;59.65
11345;BME280;5727;42.600;23.028;2023-03-26T09:12:43;93357.94;;;12.64;57.49
11345;BME280;5727;42.600;23.028;2023-03-26T09:15:30;93362.22;;;12.92;55.06
11345;BME280;5727;42.600;23.028;2023-03-26T09:21:37;93334.22;;;12.80;51.91
11345;BME280;5727;42.600;23.028;2023-03-26T09:24:29;93329.00;;;13.03;52.75
11345;BME280;5727;42.600;23.028;2023-03-26T09:27:08;93335.13;;;13.29;53.19
11345;BME280;5727;42.600;23.028;2023-03-26T09:33:04;93336.44;;;13.20;54.56
11345;BME280;5727;42.600;23.028;2023-03-26T09:35:49;93346.22;;;13.19;54.84
11345;BME280;5727;42.600;23.028;2023-03-26T09:41:15;93331.72;;;13.06;57.52
11345;BME280;5727;42.600;23.028;2023-03-26T09:44:03;93323.53;;;13.11;56.40
11345;BME280;5727;42.600;23.028;2023-03-26T09:46:41;93341.38;;;13.21;53.62
11345;BME280;5727;42.600;23.028;2023-03-26T09:49:25;93335.81;;;13.26;51.62
11345;BME280;5727;42.600;23.028;2023-03-26T09:52:24;93333.50;;;13.21;51.47
11345;BME280;5727;42.600;23.028;2023-03-26T09:58:39;93325.75;;;13.09;52.86
11345;BME280;5727;42.600;23.028;2023-03-26T10:01:13;93315.31;;;13.13;53.27
11345;BME280;5727;42.600;23.028;2023-03-26T10:03:57;93311.75;;;13.24;54.19
11345;BME280;5727;42.600;23.028;2023-03-26T10:06:40;93298.16;;;13.45;53.63
11345;BME280;5727;42.600;23.028;2023-03-26T10:09:33;93288.28;;;13.61;49.89
11345;BME280;5727;42.600;23.028;2023-03-26T10:12:21;93288.13;;;13.76;50.31
11345;BME280;5727;42.600;23.028;2023-03-26T10:15:00;93298.88;;;13.68;48.68
11345;BME280;5727;42.600;23.028;2023-03-26T10:17:35;93294.13;;;13.51;47.40
11345;BME280;5727;42.600;23.028;2023-03-26T10:20:30;93282.28;;;13.64;48.94
11345;BME280;5727;42.600;23.028;2023-03-26T10:23:06;93271.97;;;13.78;50.19
11345;BME280;5727;42.600;23.028;2023-03-26T10:25:46;93271.28;;;13.81;49.50
11345;BME280;5727;42.600;23.028;2023-03-26T10:31:33;93263.88;;;13.90;49.50
11345;BME280;5727;42.600;23.028;2023-03-26T10:34:13;93248.19;;;14.01;47.95
11345;BME280;5727;42.600;23.028;2023-03-26T10:36:50;93255.06;;;14.09;49.72
11345;BME280;5727;42.600;23.028;2023-03-26T10:39:51;93252.19;;;14.17;46.86
11345;BME280;5727;42.600;23.028;2023-03-26T10:42:46;93243.94;;;14.22;45.24
11345;BME280;5727;42.600;23.028;2023-03-26T10:45:30;93230.97;;;14.36;45.57
11345;BME280;5727;42.600;23.028;2023-03-26T10:54:07;93230.56;;;14.34;44.66
11345;BME280;5727;42.600;23.028;2023-03-26T10:56:39;93240.31;;;14.30;43.27
11345;BME280;5727;42.600;23.028;2023-03-26T10:59:12;93245.25;;;14.35;40.17
11345;BME280;5727;42.600;23.028;2023-03-26T11:01:42;93244.72;;;14.23;37.93
11345;BME280;5727;42.600;23.028;2023-03-26T11:04:24;93242.44;;;14.21;39.46
11345;BME280;5727;42.600;23.028;2023-03-26T11:07:00;93222.97;;;14.29;41.12
11345;BME280;5727;42.600;23.028;2023-03-26T11:09:39;93225.50;;;14.52;43.31
11345;BME280;5727;42.600;23.028;2023-03-26T11:12:13;93210.91;;;14.61;40.31
11345;BME280;5727;42.600;23.028;2023-03-26T11:14:52;93215.06;;;14.62;39.35
11345;BME280;5727;42.600;23.028;2023-03-26T11:17:32;93210.19;;;14.64;38.36
11345;BME280;5727;42.600;23.028;2023-03-26T11:20:08;93199.69;;;14.72;38.85
11345;BME280;5727;42.600;23.028;2023-03-26T11:22:44;93195.75;;;14.92;36.22
11345;BME280;5727;42.600;23.028;2023-03-26T11:25:37;93202.22;;;14.98;34.92
11345;BME280;5727;42.600;23.028;2023-03-26T11:28:35;93198.09;;;15.00;33.88
11345;BME280;5727;42.600;23.028;2023-03-26T11:31:11;93195.50;;;15.07;35.73
11345;BME280;5727;42.600;23.028;2023-03-26T11:33:45;93198.31;;;14.85;35.20
11345;BME280;5727;42.600;23.028;2023-03-26T11:36:16;93185.84;;;14.82;37.55
11345;BME280;5727;42.600;23.028;2023-03-26T11:38:46;93176.63;;;15.05;38.13
11345;BME280;5727;42.600;23.028;2023-03-26T11:41:17;93171.09;;;15.21;36.55
11345;BME280;5727;42.600;23.028;2023-03-26T11:43:46;93164.41;;;15.34;36.40
11345;BME280;5727;42.600;23.028;2023-03-26T11:46:19;93166.38;;;15.44;35.83
11345;BME280;5727;42.600;23.028;2023-03-26T11:48:48;93166.75;;;15.42;35.69
11345;BME280;5727;42.600;23.028;2023-03-26T11:51:21;93170.34;;;15.24;35.24
11345;BME280;5727;42.600;23.028;2023-03-26T11:53:48;93152.81;;;14.95;35.71
11345;BME280;5727;42.600;23.028;2023-03-26T11:56:21;93150.69;;;15.11;36.50
11345;BME280;5727;42.600;23.028;2023-03-26T11:58:53;93147.38;;;15.24;36.39
11345;BME280;5727;42.600;23.028;2023-03-26T12:01:24;93140.28;;;15.39;36.82
11345;BME280;5727;42.600;23.028;2023-03-26T12:03:56;93131.75;;;15.56;35.40
11345;BME280;5727;42.600;23.028;2023-03-26T12:06:25;93138.13;;;15.48;34.00
11345;BME280;5727;42.600;23.028;2023-03-26T12:08:53;93138.16;;;15.51;34.04
11345;BME280;5727;42.600;23.028;2023-03-26T12:11:24;93132.66;;;15.88;33.23
11345;BME280;5727;42.600;23.028;2023-03-26T12:13:55;93117.34;;;17.52;30.34
11345;BME280;5727;42.600;23.028;2023-03-26T12:16:23;93109.13;;;20.90;25.84
11345;BME280;5727;42.600;23.028;2023-03-26T12:18:58;93101.38;;;23.27;23.38
11345;BME280;5727;42.600;23.028;2023-03-26T12:21:26;93109.38;;;22.63;22.35
11345;BME280;5727;42.600;23.028;2023-03-26T12:23:55;93100.63;;;23.59;21.02
11345;BME280;5727;42.600;23.028;2023-03-26T12:26:35;93091.16;;;24.53;20.73
11345;BME280;5727;42.600;23.028;2023-03-26T12:29:10;93098.41;;;25.15;20.07
11345;BME280;5727;42.600;23.028;2023-03-26T12:31:54;93087.94;;;23.76;20.73
11345;BME280;5727;42.600;23.028;2023-03-26T12:34:22;93075.94;;;24.75;20.09
11345;BME280;5727;42.600;23.028;2023-03-26T12:36:56;93081.28;;;24.37;21.43
11345;BME280;5727;42.600;23.028;2023-03-26T12:39:30;93082.34;;;25.15;19.01
11345;BME280;5727;42.600;23.028;2023-03-26T12:42:00;93078.91;;;24.27;18.43
11345;BME280;5727;42.600;23.028;2023-03-26T12:44:29;93083.25;;;24.08;19.08
11345;BME280;5727;42.600;23.028;2023-03-26T12:47:09;93071.13;;;24.95;18.41
11345;BME280;5727;42.600;23.028;2023-03-26T12:49:37;93073.69;;;25.46;17.74
11345;BME280;5727;42.600;23.028;2023-03-26T12:52:18;93070.66;;;25.22;17.34
11345;BME280;5727;42.600;23.028;2023-03-26T12:54:53;93081.56;;;23.57;19.04
11345;BME280;5727;42.600;23.028;2023-03-26T12:57:28;93052.00;;;24.18;18.99
11345;BME280;5727;42.600;23.028;2023-03-26T13:00:16;93059.28;;;25.05;17.96
11345;BME280;5727;42.600;23.028;2023-03-26T13:03:03;93054.53;;;25.69;17.73
11345;BME280;5727;42.600;23.028;2023-03-26T13:05:53;93056.16;;;26.31;17.28
11345;BME280;5727;42.600;23.028;2023-03-26T13:08:46;93052.16;;;25.71;16.85
11345;BME280;5727;42.600;23.028;2023-03-26T13:11:21;93054.97;;;24.74;17.97
11345;BME280;5727;42.600;23.028;2023-03-26T13:14:06;93041.44;;;25.92;17.40
11345;BME280;5727;42.600;23.028;2023-03-26T13:16:40;93060.38;;;25.20;17.45
11345;BME280;5727;42.600;23.028;2023-03-26T13:19:14;93055.00;;;25.08;17.76
11345;BME280;5727;42.600;23.028;2023-03-26T13:21:53;93048.91;;;23.49;18.69
11345;BME280;5727;42.600;23.028;2023-03-26T13:24:32;93046.03;;;24.89;17.90
11345;BME280;5727;42.600;23.028;2023-03-26T13:27:08;93038.97;;;24.58;18.26
11345;BME280;5727;42.600;23.028;2023-03-26T13:29:45;93036.38;;;25.04;17.99
11345;BME280;5727;42.600;23.028;2023-03-26T13:32:23;93043.25;;;24.68;17.83
11345;BME280;5727;42.600;23.028;2023-03-26T13:35:04;93032.56;;;24.55;18.05
11345;BME280;5727;42.600;23.028;2023-03-26T13:37:38;93034.44;;;24.04;18.54
11345;BME280;5727;42.600;23.028;2023-03-26T13:40:19;93031.81;;;23.59;18.65
11345;BME280;5727;42.600;23.028;2023-03-26T13:43:02;93031.44;;;24.02;18.65
11345;BME280;5727;42.600;23.028;2023-03-26T13:45:44;93040.78;;;24.35;18.52
11345;BME280;5727;42.600;23.028;2023-03-26T13:48:16;93038.16;;;23.37;19.31
11345;BME280;5727;42.600;23.028;2023-03-26T13:50:52;93042.78;;;23.04;19.15
11345;BME280;5727;42.600;23.028;2023-03-26T13:53:24;93040.31;;;23.42;18.74
11345;BME280;5727;42.600;23.028;2023-03-26T13:55:54;93019.88;;;23.19;19.04
11345;BME280;5727;42.600;23.028;2023-03-26T13:58:26;93019.94;;;23.89;18.90
11345;BME280;5727;42.600;23.028;2023-03-26T14:01:03;93014.91;;;23.91;18.98